Station Historical Data
Daily Summary for August 10, 2017 Units:  Metric    English   Both
« Previous Day
Next Day »
Daily Weekly Monthly Yearly Custom
  High: Low: Average:
Temperature: 29.4 °C 14.8 °C 22.7 °C
Dew Point: 18 °C 10.9 °C 14.4 °C
Humidity: 88% 35% 62%
Wind Speed: 11.3km/h 0km/h 2.3km/h
Wind Gust: 16.1km/h - -
Wind- - SSW
Pressure: 1022.2 hPa 1017.5 hPa -
Precipitation: 0 mm    
Historical Graphs
 
 
Tabular Data for August 10, 2017
Time Temperature Dew Point Pressure Wind Wind Speed Wind Gust Humidity Rainfall Rate (Hourly)
00:04 18.5 °C 14.8 °C 1022.2 hPa Calm   1.6 km/h 79% 0 mm
00:14 18.3 °C 14.6 °C 1021.9 hPa Calm   1.6 km/h 79% 0 mm
00:19 18.1 °C 14.6 °C 1021.9 hPa Calm   1.6 km/h 80% 0 mm
00:24 18.1 °C 14.6 °C 1021.9 hPa Calm     80% 0 mm
00:29 17.9 °C 14.4 °C 1021.9 hPa Calm     80% 0 mm
00:34 17.8 °C 14.3 °C 1021.9 hPa Calm     80% 0 mm
00:39 17.8 °C 14.3 °C 1021.9 hPa Calm     80% 0 mm
00:44 17.7 °C 14.2 °C 1021.9 hPa Calm     80% 0 mm
00:49 17.7 °C 14.2 °C 1021.9 hPa Calm     80% 0 mm
00:54 17.7 °C 14.2 °C 1021.9 hPa Calm     80% 0 mm
00:59 17.5 °C 14 °C 1021.9 hPa Calm     80% 0 mm
01:04 17.3 °C 14 °C 1021.9 hPa Calm     81% 0 mm
01:09 17.2 °C 13.9 °C 1021.9 hPa Calm     81% 0 mm
01:14 17 °C 13.7 °C 1022.2 hPa Calm     81% 0 mm
01:19 16.9 °C 13.8 °C 1022.2 hPa Calm     82% 0 mm
01:24 16.9 °C 13.8 °C 1022.2 hPa Calm     82% 0 mm
01:29 16.9 °C 13.7 °C 1022.2 hPa Calm     81% 0 mm
01:34 16.9 °C 13.8 °C 1022.2 hPa Calm     82% 0 mm
01:39 16.8 °C 13.7 °C 1022.2 hPa Calm     82% 0 mm
01:44 16.8 °C 13.7 °C 1021.9 hPa Calm     82% 0 mm
01:49 16.9 °C 14 °C 1021.9 hPa Calm     83% 0 mm
01:54 16.9 °C 13.8 °C 1021.9 hPa Calm     82% 0 mm
01:59 16.8 °C 13.9 °C 1021.9 hPa Calm     83% 0 mm
02:04 16.6 °C 13.7 °C 1021.9 hPa Calm     83% 0 mm
02:09 16.4 °C 13.6 °C 1021.9 hPa Calm     83% 0 mm
02:14 16.3 °C 13.6 °C 1021.9 hPa Calm     84% 0 mm
02:19 16.2 °C 13.5 °C 1021.9 hPa Calm     84% 0 mm
02:24 16.2 °C 13.5 °C 1021.9 hPa Calm     84% 0 mm
02:29 16.2 °C 13.4 °C 1021.9 hPa Calm     84% 0 mm
02:34 16.2 °C 13.4 °C 1021.9 hPa Calm     84% 0 mm
02:39 16.1 °C 13.4 °C 1021.6 hPa Calm     84% 0 mm
02:44 16.1 °C 13.4 °C 1021.6 hPa Calm     84% 0 mm
02:49 16.1 °C 13.4 °C 1021.9 hPa Calm     84% 0 mm
02:54 16.2 °C 13.3 °C 1021.6 hPa Calm     83% 0 mm
02:59 16.3 °C 13.4 °C 1021.6 hPa Calm     83% 0 mm
03:04 16.3 °C 13.4 °C 1021.6 hPa Calm     83% 0 mm
03:09 16.4 °C 13.5 °C 1021.6 hPa Calm     83% 0 mm
03:14 16.4 °C 13.6 °C 1021.6 hPa Calm     83% 0 mm
03:19 16.4 °C 13.3 °C 1021.6 hPa Calm     82% 0 mm
03:24 16.3 °C 13.2 °C 1021.6 hPa Calm     82% 0 mm
03:29 16.3 °C 13.4 °C 1021.6 hPa Calm     83% 0 mm
03:34 16.4 °C 13.5 °C 1021.6 hPa Calm     83% 0 mm
03:39 16.4 °C 13.5 °C 1021.6 hPa Calm     83% 0 mm
03:44 16.3 °C 13.6 °C 1021.6 hPa Calm     84% 0 mm
03:49 16.2 °C 13.5 °C 1021.6 hPa Calm     84% 0 mm
03:54 16.3 °C 13.6 °C 1021.6 hPa Calm     84% 0 mm
03:59 16.3 °C 13.6 °C 1021.6 hPa Calm     84% 0 mm
04:04 16.3 °C 13.6 °C 1021.6 hPa Calm     84% 0 mm
04:09 16.2 °C 13.5 °C 1021.6 hPa Calm     84% 0 mm
04:14 16.2 °C 13.5 °C 1021.6 hPa Calm     84% 0 mm
04:19 16.2 °C 13.4 °C 1021.6 hPa Calm     84% 0 mm
04:24 16.1 °C 13.4 °C 1021.6 hPa Calm     84% 0 mm
04:29 16.1 °C 13.6 °C 1021.6 hPa Calm     85% 0 mm
04:34 16 °C 13.5 °C 1021.6 hPa Calm     85% 0 mm
04:39 16 °C 13.5 °C 1021.6 hPa Calm     85% 0 mm
04:44 16 °C 13.5 °C 1021.6 hPa Calm     85% 0 mm
04:49 16 °C 13.5 °C 1021.6 hPa Calm     85% 0 mm
04:54 16 °C 13.5 °C 1021.2 hPa Calm     85% 0 mm
04:59 15.9 °C 13.4 °C 1021.2 hPa Calm     85% 0 mm
05:04 15.9 °C 13.4 °C 1021.2 hPa Calm     85% 0 mm
05:09 15.9 °C 13.4 °C 1021.2 hPa Calm     85% 0 mm
05:14 15.9 °C 13.4 °C 1021.2 hPa Calm     85% 0 mm
05:19 15.8 °C 13.3 °C 1021.2 hPa Calm     85% 0 mm
05:24 15.8 °C 13.3 °C 1021.2 hPa Calm     85% 0 mm
05:29 15.7 °C 13.2 °C 1021.2 hPa Calm     85% 0 mm
05:34 15.6 °C 13.1 °C 1021.2 hPa Calm     85% 0 mm
05:39 15.5 °C 13 °C 1021.6 hPa Calm     85% 0 mm
05:44 15.5 °C 13 °C 1021.6 hPa Calm     85% 0 mm
05:49 15.4 °C 12.9 °C 1021.6 hPa Calm     85% 0 mm
05:54 15.4 °C 13.1 °C 1021.6 hPa Calm     86% 0 mm
05:59 15.4 °C 12.9 °C 1021.6 hPa Calm     85% 0 mm
06:04 15.3 °C 12.8 °C 1021.6 hPa Calm     85% 0 mm
06:09 15.2 °C 12.8 °C 1021.6 hPa Calm     86% 0 mm
06:14 15.1 °C 12.7 °C 1021.6 hPa Calm     86% 0 mm
06:19 15 °C 12.7 °C 1021.6 hPa Calm     86% 0 mm
06:24 14.9 °C 12.7 °C 1021.9 hPa Calm     87% 0 mm
06:29 14.8 °C 12.7 °C 1021.9 hPa Calm     87% 0 mm
06:34 14.8 °C 12.7 °C 1021.9 hPa Calm     87% 0 mm
06:39 14.8 °C 12.9 °C 1021.9 hPa Calm     88% 0 mm
06:44 14.9 °C 13 °C 1021.9 hPa Calm     88% 0 mm
06:49 15.1 °C 13.1 °C 1021.9 hPa Calm     88% 0 mm
06:54 15.2 °C 13.1 °C 1021.9 hPa Calm     87% 0 mm
06:59 15.5 °C 13.3 °C 1021.9 hPa Calm     87% 0 mm
07:04 15.8 °C 13.4 °C 1021.9 hPa Calm     86% 0 mm
07:09 16.1 °C 13.6 °C 1021.9 hPa Calm     85% 0 mm
07:14 16.3 °C 13.8 °C 1021.9 hPa Calm     85% 0 mm
07:19 16.6 °C 13.9 °C 1021.9 hPa Calm     84% 0 mm
07:24 16.9 °C 14.1 °C 1021.9 hPa SSW 3.2 km/h 3.2 km/h 83% 0 mm
07:29 17.2 °C 14.1 °C 1021.9 hPa Calm   3.2 km/h 82% 0 mm
07:34 17.4 °C 14.2 °C 1021.9 hPa Calm   1.6 km/h 81% 0 mm
07:39 17.8 °C 14.3 °C 1021.9 hPa Calm   1.6 km/h 80% 0 mm
07:44 18.1 °C 14.3 °C 1021.9 hPa Calm   1.6 km/h 79% 0 mm
07:49 18.3 °C 14.4 °C 1022.2 hPa Calm     78% 0 mm
07:54 18.6 °C 14.7 °C 1022.2 hPa Calm   3.2 km/h 78% 0 mm
07:59 18.8 °C 14.7 °C 1021.9 hPa Calm   3.2 km/h 77% 0 mm
08:04 19.1 °C 14.7 °C 1022.2 hPa Calm     76% 0 mm
08:09 19.3 °C 14.7 °C 1022.2 hPa Calm     75% 0 mm
08:14 19.4 °C 14.8 °C 1022.2 hPa Calm     75% 0 mm
08:19 19.7 °C 15.2 °C 1022.2 hPa Calm     75% 0 mm
08:29 20.3 °C 15.3 °C 1022.2 hPa Calm     73% 0 mm
08:34 20.7 °C 15.2 °C 1022.2 hPa Calm   4.8 km/h 71% 0 mm
08:39 20.8 °C 15.2 °C 1022.2 hPa SSE 4.8 km/h 6.4 km/h 70% 0 mm
08:44 21.1 °C 15.2 °C 1022.2 hPa SSE 3.2 km/h 8 km/h 69% 0 mm
08:49 21.4 °C 15.5 °C 1021.9 hPa SSE 4.8 km/h 8 km/h 69% 0 mm
08:54 21.8 °C 15.4 °C 1021.9 hPa South 3.2 km/h 6.4 km/h 67% 0 mm
08:59 21.8 °C 15.2 °C 1021.9 hPa South 3.2 km/h 11.3 km/h 66% 0 mm
09:04 21.9 °C 15.1 °C 1021.9 hPa South 3.2 km/h 11.3 km/h 65% 0 mm
09:09 22.4 °C 15.6 °C 1021.9 hPa South 3.2 km/h 9.7 km/h 65% 0 mm
09:14 22.8 °C 15.9 °C 1021.9 hPa SSW 3.2 km/h 11.3 km/h 65% 0 mm
09:19 23.2 °C 15.2 °C 1021.9 hPa SSW 4.8 km/h 11.3 km/h 61% 0 mm
09:24 23.3 °C 15.3 °C 1021.9 hPa South 3.2 km/h 11.3 km/h 61% 0 mm
09:29 23.3 °C 15.1 °C 1021.9 hPa SSW 4.8 km/h 11.3 km/h 60% 0 mm
09:34 23.5 °C 15.3 °C 1021.9 hPa SSW 6.4 km/h 8 km/h 60% 0 mm
09:39 23.7 °C 15.2 °C 1021.9 hPa SSE 4.8 km/h 9.7 km/h 59% 0 mm
09:44 23.5 °C 14.8 °C 1021.9 hPa SSW 1.6 km/h 8 km/h 58% 0 mm
09:49 23.4 °C 14.7 °C 1021.9 hPa SW 3.2 km/h 11.3 km/h 58% 0 mm
09:59 23.8 °C 15.3 °C 1021.9 hPa SW 3.2 km/h 9.7 km/h 59% 0 mm
10:04 24 °C 14.7 °C 1021.9 hPa SW 6.4 km/h 11.3 km/h 56% 0 mm
10:09 24.3 °C 15.5 °C 1021.9 hPa SW 4.8 km/h 11.3 km/h 58% 0 mm
10:14 24.7 °C 15.8 °C 1021.6 hPa SSW 4.8 km/h 11.3 km/h 58% 0 mm
10:19 24.6 °C 14.6 °C 1021.9 hPa SSW 4.8 km/h 11.3 km/h 54% 0 mm
10:24 24.7 °C 15.1 °C 1021.9 hPa SSW 4.8 km/h 11.3 km/h 55% 0 mm
10:29 25.2 °C 15.5 °C 1021.6 hPa SSW 4.8 km/h 11.3 km/h 55% 0 mm
10:34 25.7 °C 16 °C 1021.6 hPa SW 4.8 km/h 11.3 km/h 55% 0 mm
10:39 25.4 °C 15.7 °C 1021.6 hPa SSW 1.6 km/h 8 km/h 55% 0 mm
10:44 25.5 °C 15.8 °C 1021.6 hPa SW 1.6 km/h 4.8 km/h 55% 0 mm
10:49 25.7 °C 16 °C 1021.6 hPa Calm   6.4 km/h 55% 0 mm
10:54 25.6 °C 15.8 °C 1021.6 hPa SSW 3.2 km/h 8 km/h 55% 0 mm
10:59 25.1 °C 15.7 °C 1021.6 hPa SSW 8 km/h 9.7 km/h 56% 0 mm
11:04 25.9 °C 15.9 °C 1021.6 hPa SW 6.4 km/h 9.7 km/h 54% 0 mm
11:09 25.8 °C 17.2 °C 1021.6 hPa Calm   8 km/h 59% 0 mm
11:14 25.8 °C 15.8 °C 1021.6 hPa WSW 3.2 km/h 8 km/h 54% 0 mm
11:19 25.9 °C 15.6 °C 1021.2 hPa WSW 3.2 km/h 8 km/h 53% 0 mm
11:29 26.2 °C 16.4 °C 1021.2 hPa South 4.8 km/h 9.7 km/h 55% 0 mm
11:34 26.6 °C 16.8 °C 1021.2 hPa SSW 3.2 km/h 9.7 km/h 55% 0 mm
11:39 26.6 °C 16.5 °C 1021.2 hPa West 6.4 km/h 11.3 km/h 54% 0 mm
11:44 26.7 °C 15.7 °C 1021.2 hPa SSW 4.8 km/h 9.7 km/h 51% 0 mm
11:49 26.8 °C 16.1 °C 1021.2 hPa SW 9.7 km/h 16.1 km/h 52% 0 mm
11:54 26.7 °C 16 °C 1021.2 hPa SW 4.8 km/h 14.5 km/h 52% 0 mm
11:59 27.3 °C 16.8 °C 1020.9 hPa WSW 8 km/h 9.7 km/h 53% 0 mm
12:04 27.8 °C 16.4 °C 1020.9 hPa SSW 3.2 km/h 8 km/h 50% 0 mm
12:09 27.4 °C 16.4 °C 1020.9 hPa NE 3.2 km/h 11.3 km/h 51% 0 mm
12:14 26.9 °C 16.2 °C 1020.9 hPa South 4.8 km/h 11.3 km/h 52% 0 mm
12:19 27.3 °C 15.6 °C 1020.9 hPa SSW 3.2 km/h 9.7 km/h 49% 0 mm
12:24 27.3 °C 16.6 °C 1020.9 hPa SSW 3.2 km/h 11.3 km/h 52% 0 mm
12:29 26.8 °C 16.7 °C 1020.9 hPa SW 4.8 km/h 9.7 km/h 54% 0 mm
12:34 26.5 °C 16.4 °C 1020.9 hPa SSW 3.2 km/h 11.3 km/h 54% 0 mm
12:39 26.6 °C 15.7 °C 1020.9 hPa East 3.2 km/h 8 km/h 51% 0 mm
12:44 27.1 °C 16.1 °C 1020.9 hPa SE 3.2 km/h 8 km/h 51% 0 mm
12:49 27.4 °C 17.6 °C 1020.5 hPa SW 1.6 km/h 6.4 km/h 55% 0 mm
12:54 28 °C 16.3 °C 1020.5 hPa SSW 3.2 km/h 14.5 km/h 49% 0 mm
12:59 27.5 °C 16.2 °C 1020.5 hPa SSE 4.8 km/h 12.9 km/h 50% 0 mm
13:04 27 °C 16 °C 1020.5 hPa ESE 4.8 km/h 8 km/h 51% 0 mm
13:09 27.2 °C 15.6 °C 1020.5 hPa SSE 4.8 km/h 12.9 km/h 49% 0 mm
13:14 27.6 °C 16.2 °C 1020.5 hPa SSE 3.2 km/h 9.7 km/h 50% 0 mm
13:19 27.3 °C 15.7 °C 1020.5 hPa SE 4.8 km/h 11.3 km/h 49% 0 mm
13:24 27.2 °C 15.2 °C 1020.5 hPa South 4.8 km/h 11.3 km/h 48% 0 mm
13:29 27.3 °C 15.7 °C 1020.5 hPa SW 6.4 km/h 9.7 km/h 49% 0 mm
13:34 27.7 °C 16.1 °C 1020.5 hPa South 4.8 km/h 11.3 km/h 49% 0 mm
13:39 27.7 °C 14.7 °C 1020.5 hPa SSW 3.2 km/h 12.9 km/h 45% 0 mm
13:44 28.2 °C 15.1 °C 1020.5 hPa SE 3.2 km/h 11.3 km/h 45% 0 mm
13:49 27.9 °C 14.6 °C 1020.2 hPa South 4.8 km/h 12.9 km/h 44% 0 mm
13:54 27.6 °C 13.5 °C 1020.5 hPa SW 4.8 km/h 12.9 km/h 42% 0 mm
13:59 27.8 °C 14.1 °C 1020.5 hPa SSW 4.8 km/h 11.3 km/h 43% 0 mm
14:04 27.8 °C 14.1 °C 1020.5 hPa WSW 4.8 km/h 11.3 km/h 43% 0 mm
14:09 28.1 °C 14.7 °C 1020.2 hPa WNW 4.8 km/h 9.7 km/h 44% 0 mm
14:14 28 °C 12.8 °C 1020.2 hPa SSW 4.8 km/h 9.7 km/h 39% 0 mm
14:19 28.2 °C 13.3 °C 1020.2 hPa SW 1.6 km/h 11.3 km/h 40% 0 mm
14:24 28.3 °C 14.9 °C 1020.2 hPa SSW 4.8 km/h 11.3 km/h 44% 0 mm
14:29 28.5 °C 14.3 °C 1020.2 hPa SSW 4.8 km/h 12.9 km/h 42% 0 mm
14:34 28.2 °C 14.8 °C 1020.2 hPa ESE 4.8 km/h 9.7 km/h 44% 0 mm
14:39 28.3 °C 13.8 °C 1019.9 hPa NE 3.2 km/h 12.9 km/h 41% 0 mm
14:49 28.4 °C 15.7 °C 1019.9 hPa South 3.2 km/h 4.8 km/h 46% 0 mm
14:54 28.8 °C 16.3 °C 1019.9 hPa SSE 3.2 km/h 9.7 km/h 47% 0 mm
14:59 28.2 °C 14.8 °C 1019.9 hPa SE 3.2 km/h 9.7 km/h 44% 0 mm
15:04 28 °C 14.6 °C 1019.9 hPa South 4.8 km/h 11.3 km/h 44% 0 mm
15:09 27.8 °C 15.2 °C 1019.5 hPa South 4.8 km/h 11.3 km/h 46% 0 mm
15:14 27.7 °C 14.3 °C 1019.5 hPa SSE 3.2 km/h 11.3 km/h 44% 0 mm
15:19 27.6 °C 14.6 °C 1019.5 hPa South 4.8 km/h 8 km/h 45% 0 mm
15:24 27.8 °C 13.7 °C 1019.5 hPa SSW 3.2 km/h 9.7 km/h 42% 0 mm
15:29 28 °C 14.6 °C 1019.5 hPa East 4.8 km/h 8 km/h 44% 0 mm
15:34 28.6 °C 15.8 °C 1019.5 hPa SE 3.2 km/h 8 km/h 46% 0 mm
15:39 29 °C 14.8 °C 1019.2 hPa SSE 9.7 km/h 12.9 km/h 42% 0 mm
15:44 29 °C 13.7 °C 1019.2 hPa East 3.2 km/h 11.3 km/h 39% 0 mm
15:49 29.1 °C 15.9 °C 1019.2 hPa SE 11.3 km/h 16.1 km/h 45% 0 mm
15:54 29.4 °C 14 °C 1019.2 hPa SSW 4.8 km/h 11.3 km/h 39% 0 mm
15:59 29.1 °C 14.1 °C 1019.2 hPa SSW 4.8 km/h 12.9 km/h 40% 0 mm
16:04 29.2 °C 14.2 °C 1019.2 hPa SW 4.8 km/h 12.9 km/h 40% 0 mm
16:09 29.2 °C 15.3 °C 1019.2 hPa WSW 3.2 km/h 12.9 km/h 43% 0 mm
16:14 28.9 °C 13.6 °C 1018.8 hPa WSW 4.8 km/h 11.3 km/h 39% 0 mm
16:19 28.8 °C 15.7 °C 1018.8 hPa WSW 4.8 km/h 11.3 km/h 45% 0 mm
16:24 29 °C 16.2 °C 1018.8 hPa WSW 3.2 km/h 8 km/h 46% 0 mm
16:29 29.3 °C 13.9 °C 1018.8 hPa WSW 4.8 km/h 9.7 km/h 39% 0 mm
16:34 28.8 °C 13.9 °C 1018.8 hPa WSW 4.8 km/h 12.9 km/h 40% 0 mm
16:39 28.8 °C 13.1 °C 1018.8 hPa West 1.6 km/h 12.9 km/h 38% 0 mm
16:44 28.7 °C 14.2 °C 1018.8 hPa WNW 3.2 km/h 8 km/h 41% 0 mm
16:49 28.8 °C 12.6 °C 1018.8 hPa Calm   9.7 km/h 37% 0 mm
16:54 28.9 °C 12.7 °C 1018.8 hPa SW 1.6 km/h 6.4 km/h 37% 0 mm
16:59 28.9 °C 12.8 °C 1018.5 hPa West 4.8 km/h 6.4 km/h 37% 0 mm
17:04 28.8 °C 14.3 °C 1018.5 hPa WSW 3.2 km/h 6.4 km/h 41% 0 mm
17:09 28.8 °C 12.2 °C 1018.5 hPa WSW 3.2 km/h 8 km/h 36% 0 mm
17:14 28.8 °C 13.1 °C 1018.5 hPa South 3.2 km/h 12.9 km/h 38% 0 mm
17:19 28.8 °C 13.4 °C 1018.5 hPa SSW 6.4 km/h 9.7 km/h 39% 0 mm
17:24 28.7 °C 13 °C 1018.5 hPa SSE 3.2 km/h 11.3 km/h 38% 0 mm
17:29 28.8 °C 13.4 °C 1018.5 hPa SE 1.6 km/h 8 km/h 39% 0 mm
17:34 28.8 °C 13.1 °C 1018.5 hPa SE 4.8 km/h 11.3 km/h 38% 0 mm
17:39 28.6 °C 13.3 °C 1018.2 hPa SSE 6.4 km/h 11.3 km/h 39% 0 mm
17:44 28.6 °C 13.2 °C 1018.2 hPa SW 1.6 km/h 8 km/h 39% 0 mm
17:49 28.8 °C 13.4 °C 1018.2 hPa SW 1.6 km/h 4.8 km/h 39% 0 mm
17:54 28.7 °C 13.8 °C 1018.2 hPa SSE 1.6 km/h 6.4 km/h 40% 0 mm
17:59 28.7 °C 13.7 °C 1018.2 hPa SSE 6.4 km/h 11.3 km/h 40% 0 mm
18:04 28.4 °C 14.2 °C 1018.2 hPa SE 4.8 km/h 14.5 km/h 42% 0 mm
18:09 28.3 °C 13.1 °C 1018.2 hPa SSE 4.8 km/h 14.5 km/h 39% 0 mm
18:14 28.3 °C 11.8 °C 1018.2 hPa SSW 6.4 km/h 12.9 km/h 36% 0 mm
18:19 28.1 °C 12.4 °C 1018.2 hPa South 6.4 km/h 8 km/h 38% 0 mm
18:24 28.1 °C 12.4 °C 1018.2 hPa SSW 4.8 km/h 12.9 km/h 38% 0 mm
18:29 27.8 °C 11.3 °C 1018.2 hPa SSW 11.3 km/h 16.1 km/h 36% 0 mm
18:34 27.7 °C 11.2 °C 1017.8 hPa South 6.4 km/h 16.1 km/h 36% 0 mm
18:39 27.7 °C 10.9 °C 1017.8 hPa South 8 km/h 14.5 km/h 35% 0 mm
18:44 27.6 °C 11.2 °C 1017.8 hPa South 6.4 km/h 12.9 km/h 36% 0 mm
18:49 27.5 °C 11.9 °C 1017.8 hPa SSE 4.8 km/h 6.4 km/h 38% 0 mm
18:54 27.6 °C 11.6 °C 1017.8 hPa SSW 4.8 km/h 6.4 km/h 37% 0 mm
18:59 27.3 °C 11.7 °C 1017.8 hPa South 3.2 km/h 9.7 km/h 38% 0 mm
19:04 27.1 °C 11.5 °C 1017.8 hPa SSW 3.2 km/h 9.7 km/h 38% 0 mm
19:09 26.9 °C 11.8 °C 1017.8 hPa SSW 3.2 km/h 9.7 km/h 39% 0 mm
19:14 26.9 °C 11.4 °C 1017.8 hPa SSW 3.2 km/h 9.7 km/h 38% 0 mm
19:19 27 °C 12.2 °C 1017.8 hPa South 4.8 km/h 6.4 km/h 40% 0 mm
19:24 26.7 °C 12 °C 1017.8 hPa South 6.4 km/h 9.7 km/h 40% 0 mm
19:29 26.6 °C 11.4 °C 1017.8 hPa South 6.4 km/h 9.7 km/h 39% 0 mm
19:34 26.4 °C 11.4 °C 1017.8 hPa Calm   12.9 km/h 39% 0 mm
19:39 26.3 °C 12 °C 1017.8 hPa SSW 3.2 km/h 12.9 km/h 41% 0 mm
19:44 26.2 °C 11.9 °C 1017.8 hPa SSW 3.2 km/h 8 km/h 41% 0 mm
19:49 25.9 °C 11.7 °C 1017.8 hPa SSW 3.2 km/h 9.7 km/h 41% 0 mm
19:54 25.8 °C 11.6 °C 1017.5 hPa South 3.2 km/h 9.7 km/h 41% 0 mm
19:59 25.7 °C 11.5 °C 1017.5 hPa Calm   6.4 km/h 41% 0 mm
20:04 25.6 °C 12.1 °C 1017.5 hPa SSW 3.2 km/h 8 km/h 43% 0 mm
20:09 25.5 °C 11.7 °C 1017.5 hPa SSW 1.6 km/h 8 km/h 42% 0 mm
20:14 25.4 °C 12.2 °C 1017.5 hPa Calm   4.8 km/h 44% 0 mm
20:19 25.3 °C 12.2 °C 1017.5 hPa SSW 3.2 km/h 6.4 km/h 44% 0 mm
20:24 25.2 °C 12.1 °C 1017.5 hPa Calm   4.8 km/h 44% 0 mm
20:29 25.1 °C 12.3 °C 1017.5 hPa SSW 1.6 km/h 6.4 km/h 45% 0 mm
20:34 25.1 °C 12.3 °C 1017.5 hPa SSW 3.2 km/h 6.4 km/h 45% 0 mm
20:39 25.1 °C 12.6 °C 1017.5 hPa Calm   4.8 km/h 46% 0 mm
20:44 25 °C 12.6 °C 1017.5 hPa SSW 1.6 km/h 4.8 km/h 46% 0 mm
20:49 25 °C 12.6 °C 1017.5 hPa SSW 1.6 km/h 6.4 km/h 46% 0 mm
20:54 25 °C 12.9 °C 1017.5 hPa South 1.6 km/h 6.4 km/h 47% 0 mm
20:59 24.9 °C 12.8 °C 1017.8 hPa SSE 1.6 km/h 4.8 km/h 47% 0 mm
21:04 24.9 °C 12.8 °C 1017.8 hPa Calm   6.4 km/h 47% 0 mm
21:09 24.9 °C 13.5 °C 1018.2 hPa South 3.2 km/h 9.7 km/h 49% 0 mm
21:14 24.8 °C 14.6 °C 1018.2 hPa WSW 3.2 km/h 16.1 km/h 53% 0 mm
21:19 24.6 °C 16.1 °C 1018.2 hPa SW 4.8 km/h 11.3 km/h 59% 0 mm
21:24 24.3 °C 16.3 °C 1018.2 hPa SW 3.2 km/h 11.3 km/h 61% 0 mm
21:29 24.1 °C 16.4 °C 1018.2 hPa WSW 4.8 km/h 9.7 km/h 62% 0 mm
21:34 24 °C 16.5 °C 1018.2 hPa WSW 3.2 km/h 8 km/h 63% 0 mm
21:39 23.9 °C 16.7 °C 1018.2 hPa SW 4.8 km/h 11.3 km/h 64% 0 mm
21:44 23.8 °C 16.8 °C 1018.2 hPa SW 4.8 km/h 11.3 km/h 65% 0 mm
21:49 23.7 °C 17 °C 1018.2 hPa SW 3.2 km/h 6.4 km/h 66% 0 mm
21:54 23.7 °C 16.9 °C 1018.2 hPa SSW 3.2 km/h 8 km/h 66% 0 mm
21:59 23.6 °C 17.3 °C 1018.2 hPa SSW 1.6 km/h 8 km/h 68% 0 mm
22:04 23.4 °C 17.7 °C 1018.2 hPa SSW 1.6 km/h 8 km/h 70% 0 mm
22:09 23.4 °C 17.8 °C 1018.2 hPa Calm   8 km/h 71% 0 mm
22:14 23.3 °C 18 °C 1018.2 hPa SW 3.2 km/h 11.3 km/h 72% 0 mm
22:19 23.2 °C 17.9 °C 1018.2 hPa SW 4.8 km/h 11.3 km/h 72% 0 mm
22:24 23.2 °C 17.6 °C 1018.2 hPa SW 3.2 km/h 6.4 km/h 71% 0 mm
22:29 23.1 °C 17.5 °C 1018.2 hPa SW 3.2 km/h 4.8 km/h 71% 0 mm
22:34 23.1 °C 17.5 °C 1018.2 hPa Calm   6.4 km/h 71% 0 mm
22:39 22.9 °C 17.4 °C 1018.2 hPa Calm   4.8 km/h 71% 0 mm
22:44 22.8 °C 17.2 °C 1018.2 hPa SW 3.2 km/h 6.4 km/h 71% 0 mm
22:49 22.7 °C 17.2 °C 1018.2 hPa SW 1.6 km/h 6.4 km/h 71% 0 mm
22:54 22.7 °C 17.4 °C 1018.2 hPa SW 1.6 km/h 4.8 km/h 72% 0 mm
22:59 22.7 °C 17.1 °C 1018.2 hPa Calm   4.8 km/h 71% 0 mm
23:04 22.7 °C 17.1 °C 1018.2 hPa Calm     71% 0 mm
23:09 22.7 °C 17.1 °C 1018.2 hPa Calm     71% 0 mm
23:14 22.7 °C 17.1 °C 1018.2 hPa Calm   1.6 km/h 71% 0 mm
23:19 22.6 °C 17.3 °C 1018.2 hPa Calm   1.6 km/h 72% 0 mm
23:24 22.5 °C 17 °C 1017.8 hPa Calm   3.2 km/h 71% 0 mm
23:29 22.6 °C 17.3 °C 1017.8 hPa Calm   6.4 km/h 72% 0 mm
23:34 22.6 °C 17.4 °C 1017.8 hPa Calm   4.8 km/h 73% 0 mm
23:39 22.4 °C 17.1 °C 1017.8 hPa SSE 1.6 km/h 4.8 km/h 72% 0 mm
23:44 22.3 °C 17 °C 1017.8 hPa Calm   1.6 km/h 72% 0 mm
23:49 22.2 °C 16.7 °C 1017.8 hPa Calm     71% 0 mm
23:54 22 °C 16.3 °C 1017.8 hPa Calm     70% 0 mm
23:59 21.8 °C 16.1 °C 1018.2 hPa Calm     70% 0 mm
Buffalo, New York, USA
Compliments of Weather Underground - 2.5 mb